createdAt,value
2023-02-11T00:02:16.671Z,43.83
2023-02-11T00:04:46.409Z,41.85
2023-02-11T00:07:15.952Z,40.78
2023-02-11T00:09:45.513Z,40.47
2023-02-11T00:12:15.816Z,36.60
2023-02-11T00:14:45.317Z,38.92
2023-02-11T00:17:17.460Z,36.88
2023-02-11T00:19:46.912Z,35.55
2023-02-11T00:22:16.377Z,37.17
2023-02-11T00:24:45.861Z,36.22
2023-02-11T00:27:15.432Z,38.17
2023-02-11T00:29:44.860Z,37.53
2023-02-11T00:32:16.893Z,42.20
2023-02-11T00:34:46.317Z,42.92
2023-02-11T00:37:15.775Z,42.97
2023-02-11T00:39:45.209Z,41.47
2023-02-11T00:42:14.898Z,43.75
2023-02-11T00:44:44.438Z,41.55
2023-02-11T00:47:13.879Z,42.90
2023-02-11T00:49:45.929Z,39.97
2023-02-11T00:52:15.423Z,39.05
2023-02-11T00:54:45.162Z,40.28
2023-02-11T00:57:14.607Z,43.10
2023-02-11T00:59:44.079Z,42.50
2023-02-11T01:02:13.528Z,46.17
2023-02-11T01:04:42.990Z,45.20
2023-02-11T01:07:15.118Z,46.80
2023-02-11T01:09:44.550Z,42.58
2023-02-11T01:12:14.011Z,38.58
2023-02-11T01:14:43.436Z,39.33
2023-02-11T01:17:12.939Z,37.38
2023-02-11T01:19:42.438Z,42.10
2023-02-11T01:22:11.930Z,38.05
2023-02-11T01:24:43.928Z,39.40
2023-02-11T01:27:13.362Z,37.75
2023-02-11T01:29:42.803Z,42.63
2023-02-11T01:32:12.318Z,38.60
2023-02-11T01:34:41.781Z,38.65
2023-02-11T01:37:11.213Z,40.03
2023-02-11T01:39:40.649Z,38.63
2023-02-11T01:42:13.054Z,39.70
2023-02-11T01:44:42.774Z,43.65
2023-02-11T01:47:12.205Z,39.55
2023-02-11T01:49:43.035Z,42.15
2023-02-11T01:52:13.435Z,40.97
2023-02-11T01:54:57.077Z,40.58
2023-02-11T01:57:30.649Z,44.78
2023-02-11T02:00:20.393Z,40.40
2023-02-11T02:02:54.280Z,42.70
2023-02-11T02:05:27.400Z,41.45
2023-02-11T02:08:01.781Z,38.72
2023-02-11T02:10:31.240Z,38.97
2023-02-11T02:13:03.424Z,40.17
2023-02-11T02:15:33.367Z,41.58
2023-02-11T02:18:26.658Z,38.33
2023-02-11T02:21:28.392Z,37.42
2023-02-11T02:24:24.845Z,41.92
2023-02-11T02:27:03.383Z,39.90
2023-02-11T02:30:02.408Z,39.55
2023-02-11T02:32:51.302Z,39.45
2023-02-11T02:35:27.348Z,39.30
2023-02-11T02:37:59.363Z,40.78
2023-02-11T02:40:32.320Z,39.15
2023-02-11T02:43:01.848Z,37.53
2023-02-11T02:45:31.343Z,38.30
2023-02-11T02:48:03.432Z,40.45
2023-02-11T02:50:34.128Z,41.40
2023-02-11T02:53:14.660Z,36.78
2023-02-11T02:55:48.254Z,40.35
2023-02-11T02:58:37.135Z,40.95
2023-02-11T03:01:10.250Z,41.65
2023-02-11T03:03:45.404Z,38.45
2023-02-11T03:06:17.823Z,43.10
2023-02-11T03:08:48.896Z,41.55
2023-02-11T03:13:48.017Z,42.08
2023-02-11T03:16:18.494Z,39.15
2023-02-11T03:18:51.834Z,39.97
2023-02-11T03:21:21.264Z,36.08
2023-02-11T03:23:52.486Z,35.88
2023-02-11T03:26:26.705Z,35.58
2023-02-11T03:28:58.788Z,38.35
2023-02-11T03:31:30.955Z,37.95
2023-02-11T03:34:04.200Z,36.95
2023-02-11T03:36:37.033Z,42.00
2023-02-11T03:39:06.625Z,39.10
2023-02-11T03:41:36.086Z,39.35
2023-02-11T03:44:05.526Z,41.90
2023-02-11T03:46:36.396Z,42.40
2023-02-11T03:49:11.708Z,42.25
2023-02-11T03:51:41.110Z,41.22
2023-02-11T03:54:13.542Z,41.35
2023-02-11T03:56:46.011Z,41.88
2023-02-11T03:59:15.439Z,45.65
2023-02-11T04:01:44.860Z,42.72
2023-02-11T04:04:16.895Z,55.65
2023-02-11T04:06:46.394Z,54.28
2023-02-11T04:09:15.832Z,49.78
2023-02-11T04:11:45.250Z,46.35
2023-02-11T04:14:14.687Z,43.55
2023-02-11T04:16:44.188Z,43.90
2023-02-11T04:19:16.309Z,42.95
2023-02-11T04:21:45.721Z,44.72
2023-02-11T04:24:15.167Z,45.47
2023-02-11T04:26:44.600Z,41.10
2023-02-11T04:29:14.039Z,43.65
2023-02-11T04:31:43.565Z,44.55
2023-02-11T04:34:13.001Z,45.70
2023-02-11T04:36:45.042Z,43.97
2023-02-11T04:39:14.466Z,44.15
2023-02-11T04:41:43.968Z,41.92
2023-02-11T04:44:13.536Z,42.38
2023-02-11T04:46:43.138Z,45.17
2023-02-11T04:49:13.185Z,42.42
2023-02-11T04:51:48.231Z,40.15
2023-02-11T04:54:18.709Z,44.25
2023-02-11T04:56:48.192Z,42.13
2023-02-11T04:59:17.797Z,41.72
2023-02-11T05:01:47.246Z,43.10
2023-02-11T05:04:16.767Z,43.42
2023-02-11T05:06:48.818Z,42.40
2023-02-11T05:09:18.295Z,43.95
2023-02-11T05:11:47.738Z,42.67
2023-02-11T05:14:17.176Z,43.03
2023-02-11T05:16:46.647Z,41.35
2023-02-11T05:19:16.095Z,39.85
2023-02-11T05:22:01.621Z,39.25
2023-02-11T05:24:32.344Z,37.88
2023-02-11T05:27:01.838Z,40.35
2023-02-11T05:29:31.290Z,41.08
2023-02-11T05:32:01.475Z,38.50
2023-02-11T05:34:30.879Z,43.70
2023-02-11T05:37:02.938Z,44.42
2023-02-11T05:39:32.367Z,41.95
2023-02-11T05:42:01.887Z,43.80
2023-02-11T05:44:31.305Z,45.00
2023-02-11T05:47:00.717Z,42.65
2023-02-11T05:49:30.254Z,43.83
2023-02-11T05:52:02.527Z,41.05
2023-02-11T05:54:31.993Z,43.70
2023-02-11T05:57:01.421Z,44.85
2023-02-11T05:59:30.836Z,40.70
2023-02-11T06:02:00.254Z,40.42
2023-02-11T06:04:29.660Z,43.42
2023-02-11T06:07:01.999Z,43.13
2023-02-11T06:09:31.439Z,42.92
2023-02-11T06:12:00.908Z,43.97
2023-02-11T06:14:30.375Z,42.60
2023-02-11T06:16:59.841Z,41.33
2023-02-11T06:19:29.261Z,45.20
2023-02-11T06:21:59.099Z,39.95
2023-02-11T06:24:51.399Z,43.22
2023-02-11T06:27:20.680Z,43.80
2023-02-11T06:29:52.418Z,43.42
2023-02-11T06:32:42.311Z,45.35
2023-02-11T06:35:12.429Z,43.65
2023-02-11T06:37:42.053Z,54.58
2023-02-11T06:40:14.557Z,48.42
2023-02-11T06:42:44.065Z,44.15
2023-02-11T06:45:13.649Z,52.13
2023-02-11T06:47:43.175Z,45.45
2023-02-11T06:50:14.783Z,48.70
2023-02-11T06:52:44.231Z,46.38
2023-02-11T06:55:16.321Z,48.08
2023-02-11T06:57:45.778Z,48.58
2023-02-11T07:00:16.843Z,44.35
2023-02-11T07:05:15.598Z,46.55
2023-02-11T07:07:45.034Z,49.30
2023-02-11T07:10:17.221Z,47.55
2023-02-11T07:12:46.658Z,47.75
2023-02-11T07:15:16.094Z,48.45
2023-02-11T07:17:45.580Z,51.13
2023-02-11T07:20:15.176Z,53.00
2023-02-11T07:22:44.714Z,49.28
2023-02-11T07:25:16.768Z,44.10
2023-02-11T07:27:46.198Z,45.58
2023-02-11T07:30:17.010Z,43.35
2023-02-11T07:32:46.430Z,43.90
2023-02-11T07:35:15.824Z,46.38
2023-02-11T07:37:45.253Z,45.90
2023-02-11T07:40:17.380Z,46.38
2023-02-11T07:42:46.821Z,48.13
2023-02-11T07:45:16.490Z,50.00
2023-02-11T07:47:46.010Z,48.97
2023-02-11T07:50:15.408Z,50.28
2023-02-11T07:52:44.863Z,47.22
2023-02-11T07:55:16.865Z,46.65
2023-02-11T07:57:46.288Z,47.20
2023-02-11T08:00:19.975Z,46.88
2023-02-11T08:02:50.462Z,49.15
2023-02-11T08:05:20.023Z,48.63
2023-02-11T08:07:49.450Z,46.10
2023-02-11T08:10:21.697Z,37.13
2023-02-11T08:12:51.141Z,38.67
2023-02-11T08:15:20.706Z,38.10
2023-02-11T08:17:50.234Z,37.28
2023-02-11T08:20:19.930Z,37.30
2023-02-11T08:22:49.338Z,39.75
2023-02-11T08:25:21.492Z,42.65
2023-02-11T08:27:50.934Z,43.05
2023-02-11T08:30:20.364Z,41.40
2023-02-11T08:32:49.821Z,45.47
2023-02-11T08:35:19.565Z,41.90
2023-02-11T08:37:49.068Z,44.65
2023-02-11T08:40:21.366Z,43.78
2023-02-11T08:42:50.813Z,39.78
2023-02-11T08:45:20.421Z,35.13
2023-02-11T08:47:52.035Z,35.03
2023-02-11T08:50:21.666Z,34.53
2023-02-11T08:52:52.492Z,35.72
2023-02-11T08:55:24.702Z,35.42
2023-02-11T08:57:54.188Z,35.88
2023-02-11T09:00:24.452Z,35.08
2023-02-11T09:02:53.891Z,34.33
2023-02-11T09:05:23.316Z,38.03
2023-02-11T09:07:52.759Z,36.60
2023-02-11T09:10:24.846Z,37.75
2023-02-11T09:12:54.282Z,38.30
2023-02-11T09:15:24.004Z,38.40
2023-02-11T09:17:53.493Z,34.15
2023-02-11T09:20:23.279Z,34.55
2023-02-11T09:22:52.734Z,31.33
2023-02-11T09:25:24.812Z,31.27
2023-02-11T09:27:54.260Z,32.92
2023-02-11T09:30:23.784Z,34.00
2023-02-11T09:32:53.246Z,32.22
2023-02-11T09:35:22.985Z,33.72
2023-02-11T09:37:52.422Z,32.78
2023-02-11T09:40:24.806Z,30.25
2023-02-11T09:42:56.773Z,32.40
2023-02-11T09:45:30.826Z,31.83
2023-02-11T09:48:03.845Z,31.08
2023-02-11T09:50:36.618Z,30.75
2023-02-11T09:53:07.759Z,31.80
2023-02-11T09:58:15.197Z,32.20
2023-02-11T10:00:46.995Z,29.23
2023-02-11T10:03:45.340Z,31.95
2023-02-11T10:06:22.104Z,31.67
2023-02-11T10:09:01.868Z,32.80
2023-02-11T10:11:36.285Z,34.20
2023-02-11T10:14:17.855Z,31.30
2023-02-11T10:16:54.776Z,32.08
2023-02-11T10:19:32.257Z,30.80
2023-02-11T10:22:10.045Z,32.70
2023-02-11T10:24:39.538Z,28.83
2023-02-11T10:27:17.382Z,32.75
2023-02-11T10:29:52.553Z,29.60
2023-02-11T10:32:41.698Z,32.72
2023-02-11T10:35:15.785Z,30.50
2023-02-11T10:37:45.280Z,33.13
2023-02-11T10:40:16.609Z,33.25
2023-02-11T10:42:52.432Z,34.83
2023-02-11T10:45:27.861Z,31.02
2023-02-11T10:47:59.873Z,33.88
2023-02-11T10:50:30.344Z,32.38
2023-02-11T10:53:14.842Z,34.08
2023-02-11T10:55:53.490Z,33.72
2023-02-11T10:58:30.826Z,31.20
2023-02-11T11:01:03.749Z,33.25
2023-02-11T11:03:36.950Z,30.85
2023-02-11T11:06:08.221Z,32.90
2023-02-11T11:08:45.193Z,30.08
2023-02-11T11:11:17.690Z,28.23
2023-02-11T11:13:59.973Z,23.55
2023-02-11T11:16:29.864Z,24.25
2023-02-11T11:19:17.856Z,22.73
2023-02-11T11:21:48.128Z,25.45
2023-02-11T11:24:19.593Z,28.15
2023-02-11T11:26:50.062Z,23.38
2023-02-11T11:29:23.299Z,20.90
2023-02-11T11:31:54.279Z,24.98
2023-02-11T11:34:29.779Z,21.27
2023-02-11T11:36:59.634Z,21.27
2023-02-11T11:39:30.075Z,20.88
2023-02-11T11:42:02.444Z,19.60
2023-02-11T11:44:38.343Z,19.55
2023-02-11T11:47:16.060Z,16.75
2023-02-11T11:49:50.366Z,19.90
2023-02-11T11:52:22.509Z,18.33
2023-02-11T11:54:54.754Z,17.35
2023-02-11T11:57:26.875Z,18.00
2023-02-11T11:59:58.940Z,15.88
2023-02-11T12:02:54.714Z,17.77
2023-02-11T12:05:26.890Z,16.10
2023-02-11T12:08:02.583Z,17.23
2023-02-11T12:10:37.613Z,17.35
2023-02-11T12:13:14.294Z,18.73
2023-02-11T12:15:49.465Z,18.08
2023-02-11T12:18:38.129Z,19.52
2023-02-11T12:21:15.862Z,16.65
2023-02-11T12:23:53.005Z,15.93
2023-02-11T12:26:23.068Z,16.33
2023-02-11T12:29:03.343Z,15.52
2023-02-11T12:32:02.807Z,17.00
2023-02-11T12:34:40.486Z,17.50
2023-02-11T12:37:19.146Z,16.10
2023-02-11T12:39:53.048Z,16.83
2023-02-11T12:43:03.331Z,18.23
2023-02-11T12:45:49.162Z,14.40
2023-02-11T12:48:28.536Z,15.38
2023-02-11T12:51:06.681Z,16.77
2023-02-11T12:53:56.389Z,18.27
2023-02-11T12:56:27.403Z,16.95
2023-02-11T12:58:58.520Z,15.13
2023-02-11T13:04:02.822Z,17.40
2023-02-11T13:06:33.812Z,15.40
2023-02-11T13:09:04.498Z,16.05
2023-02-11T13:11:37.784Z,17.08
2023-02-11T13:14:08.774Z,15.18
2023-02-11T13:16:39.616Z,15.30
2023-02-11T13:19:18.572Z,16.05
2023-02-11T13:22:08.176Z,14.57
2023-02-11T13:24:44.332Z,15.23
2023-02-11T13:27:19.952Z,16.33
2023-02-11T13:30:17.720Z,13.35
2023-02-11T13:33:20.945Z,12.88
2023-02-11T13:36:16.706Z,14.20
2023-02-11T13:38:57.920Z,14.45
2023-02-11T13:44:06.661Z,13.93
2023-02-11T13:47:01.442Z,15.68
2023-02-11T13:49:35.387Z,13.43
2023-02-11T13:52:08.892Z,15.82
2023-02-11T13:54:40.041Z,13.88
2023-02-11T13:59:54.468Z,15.13
2023-02-11T14:02:38.967Z,14.70
2023-02-11T14:05:37.353Z,15.27
2023-02-11T14:08:39.835Z,14.20
2023-02-11T14:11:12.455Z,14.27
2023-02-11T14:14:14.694Z,16.55
2023-02-11T14:17:21.368Z,15.50
2023-02-11T14:19:53.436Z,14.73
2023-02-11T14:22:26.033Z,13.55
2023-02-11T14:24:59.754Z,14.82
2023-02-11T14:27:40.053Z,15.40
2023-02-11T14:30:32.229Z,15.70
2023-02-11T14:33:43.021Z,14.98
2023-02-11T14:36:21.157Z,14.02
2023-02-11T14:38:58.775Z,14.57
2023-02-11T14:41:31.487Z,14.07
2023-02-11T14:44:02.220Z,14.43
2023-02-11T14:46:33.034Z,15.52
2023-02-11T14:49:03.630Z,13.80
2023-02-11T14:51:33.987Z,15.07
2023-02-11T14:54:06.177Z,13.68
2023-02-11T14:56:38.278Z,13.93
2023-02-11T14:59:18.450Z,15.43
2023-02-11T15:01:51.647Z,17.60
2023-02-11T15:04:27.888Z,15.52
2023-02-11T15:06:59.371Z,17.25
2023-02-11T15:09:33.822Z,14.77
2023-02-11T15:12:06.002Z,14.85
2023-02-11T15:14:36.228Z,16.10
2023-02-11T15:17:06.967Z,14.60
2023-02-11T15:19:38.464Z,14.18
2023-02-11T15:22:10.664Z,15.70
2023-02-11T15:24:40.564Z,16.50
2023-02-11T15:27:18.553Z,20.40
2023-02-11T15:29:49.302Z,17.10
2023-02-11T15:32:20.147Z,22.13
2023-02-11T15:34:50.362Z,19.35
2023-02-11T15:37:22.385Z,14.73
2023-02-11T15:39:52.055Z,16.27
2023-02-11T15:42:27.803Z,19.20
2023-02-11T15:45:14.582Z,30.38
2023-02-11T15:47:45.143Z,26.15
2023-02-11T15:50:22.666Z,21.50
2023-02-11T15:52:52.120Z,17.88
2023-02-11T15:55:21.584Z,17.48
2023-02-11T15:57:56.751Z,18.48
2023-02-11T16:00:27.402Z,17.42
2023-02-11T16:02:56.918Z,16.27
2023-02-11T16:05:31.657Z,18.27
2023-02-11T16:08:01.310Z,19.10
2023-02-11T16:10:32.041Z,20.85
2023-02-11T16:13:22.754Z,21.38
2023-02-11T16:15:55.747Z,21.92
2023-02-11T16:18:38.375Z,26.42
2023-02-11T16:21:08.783Z,24.70
2023-02-11T16:23:39.478Z,20.95
2023-02-11T16:26:10.785Z,20.98
2023-02-11T16:28:42.811Z,19.42
2023-02-11T16:31:12.431Z,18.30
2023-02-11T16:33:41.930Z,17.70
2023-02-11T16:36:14.862Z,18.35
2023-02-11T16:38:44.271Z,18.27
2023-02-11T16:41:14.417Z,20.80
2023-02-11T16:43:46.493Z,17.13
2023-02-11T16:46:17.194Z,17.73
2023-02-11T16:48:46.623Z,17.13
2023-02-11T16:51:16.156Z,16.13
2023-02-11T16:53:45.577Z,16.48
2023-02-11T16:56:17.408Z,16.30
2023-02-11T16:58:49.430Z,17.00
2023-02-11T17:01:18.920Z,18.20
2023-02-11T17:03:48.388Z,20.33
2023-02-11T17:06:17.849Z,29.75
2023-02-11T17:08:47.308Z,27.17
2023-02-11T17:11:18.003Z,31.20
2023-02-11T17:13:50.015Z,30.23
2023-02-11T17:16:20.765Z,28.83
2023-02-11T17:18:50.263Z,23.55
2023-02-11T17:21:19.777Z,22.88
2023-02-11T17:23:49.191Z,22.00
2023-02-11T17:26:18.601Z,19.83
2023-02-11T17:28:50.735Z,18.60
2023-02-11T17:31:20.241Z,17.23
2023-02-11T17:33:50.202Z,22.02
2023-02-11T17:36:19.678Z,17.88
2023-02-11T17:38:49.116Z,17.58
2023-02-11T17:41:18.536Z,19.20
2023-02-11T17:43:50.563Z,17.02
2023-02-11T17:46:20.016Z,17.02
2023-02-11T17:48:50.254Z,17.52
2023-02-11T17:51:27.269Z,18.43
2023-02-11T17:53:56.745Z,17.45
2023-02-11T17:56:26.158Z,19.67
2023-02-11T17:58:58.206Z,19.05
2023-02-11T18:01:29.821Z,17.30
2023-02-11T18:03:59.373Z,20.42
2023-02-11T18:06:29.266Z,21.42
2023-02-11T18:08:59.910Z,21.00
2023-02-11T18:11:30.486Z,21.67
2023-02-11T18:14:02.537Z,19.42
2023-02-11T18:16:34.447Z,19.38
2023-02-11T18:19:03.992Z,20.05
2023-02-11T18:21:33.400Z,20.17
2023-02-11T18:24:06.700Z,19.83
2023-02-11T18:26:36.797Z,18.67
2023-02-11T18:29:09.048Z,18.58
2023-02-11T18:31:38.552Z,18.33
2023-02-11T18:34:10.809Z,18.35
2023-02-11T18:36:40.420Z,20.13
2023-02-11T18:39:09.905Z,20.15
2023-02-11T18:41:40.748Z,18.80
2023-02-11T18:44:14.263Z,18.40
2023-02-11T18:46:43.662Z,19.63
2023-02-11T18:49:13.263Z,19.98
2023-02-11T18:51:42.714Z,17.40
2023-02-11T18:54:12.309Z,17.25
2023-02-11T18:56:41.746Z,18.52
2023-02-11T18:59:13.754Z,22.15
2023-02-11T19:01:46.729Z,19.15
2023-02-11T19:04:19.898Z,17.95
2023-02-11T19:06:50.338Z,19.30
2023-02-11T19:09:21.046Z,15.68
2023-02-11T19:11:50.569Z,17.35
2023-02-11T19:14:24.601Z,17.70
2023-02-11T19:16:54.815Z,16.83
2023-02-11T19:19:24.761Z,16.97
2023-02-11T19:21:54.184Z,17.60
2023-02-11T19:24:23.808Z,16.13
2023-02-11T19:26:54.001Z,17.60
2023-02-11T19:29:26.080Z,19.67
2023-02-11T19:31:55.563Z,19.20
2023-02-11T19:34:25.044Z,19.05
2023-02-11T19:36:54.811Z,20.80
2023-02-11T19:39:24.828Z,20.95
2023-02-11T19:41:54.282Z,19.17
2023-02-11T19:44:26.292Z,16.17
2023-02-11T19:46:55.725Z,18.17
2023-02-11T19:49:26.447Z,17.70
2023-02-11T19:51:57.441Z,17.17
2023-02-11T19:54:27.053Z,17.92
2023-02-11T19:56:56.470Z,18.80
2023-02-11T19:59:28.593Z,20.25
2023-02-11T20:01:57.993Z,21.90
2023-02-11T20:04:27.417Z,21.25
2023-02-11T20:06:56.834Z,17.60
2023-02-11T20:09:26.610Z,16.27
2023-02-11T20:11:56.013Z,18.58
2023-02-11T20:14:28.309Z,18.30
2023-02-11T20:16:57.920Z,18.75
2023-02-11T20:19:28.013Z,20.55
2023-02-11T20:21:57.803Z,21.10
2023-02-11T20:24:27.402Z,22.50
2023-02-11T20:26:57.897Z,20.35
2023-02-11T20:29:31.869Z,21.58
2023-02-11T20:32:02.951Z,21.10
2023-02-11T20:37:02.655Z,23.85
2023-02-11T20:39:32.088Z,20.35
2023-02-11T20:42:01.490Z,18.50
2023-02-11T20:44:33.496Z,19.60
2023-02-11T20:47:02.897Z,20.15
2023-02-11T20:49:32.388Z,19.38
2023-02-11T20:52:01.825Z,19.90
2023-02-11T20:54:31.325Z,18.45
2023-02-11T20:57:00.856Z,20.10
2023-02-11T20:59:33.416Z,21.65
2023-02-11T21:02:02.866Z,23.08
2023-02-11T21:04:32.925Z,21.33
2023-02-11T21:07:03.267Z,22.15
2023-02-11T21:09:33.730Z,21.65
2023-02-11T21:12:03.253Z,20.90
2023-02-11T21:14:35.307Z,21.23
2023-02-11T21:17:04.705Z,22.02
2023-02-11T21:19:34.120Z,22.73
2023-02-11T21:22:03.522Z,22.02
2023-02-11T21:24:33.596Z,20.58
2023-02-11T21:27:03.056Z,20.55
2023-02-11T21:29:40.443Z,24.63
2023-02-11T21:32:17.693Z,22.90
2023-02-11T21:34:47.121Z,26.08
2023-02-11T21:37:16.539Z,25.00
2023-02-11T21:39:45.964Z,26.85
2023-02-11T21:42:15.416Z,23.92
2023-02-11T21:44:47.471Z,23.85
2023-02-11T21:47:16.886Z,25.83
2023-02-11T21:49:46.302Z,24.88
2023-02-11T21:52:15.713Z,25.02
2023-02-11T21:54:45.130Z,24.05
2023-02-11T21:57:14.537Z,22.77
2023-02-11T21:59:44.128Z,22.13
2023-02-11T22:02:16.100Z,21.42
2023-02-11T22:04:45.554Z,22.88
2023-02-11T22:07:14.966Z,21.15
2023-02-11T22:09:44.427Z,20.95
2023-02-11T22:12:13.855Z,21.15
2023-02-11T22:14:43.326Z,21.13
2023-02-11T22:17:12.780Z,23.30
2023-02-11T22:19:44.850Z,22.42
2023-02-11T22:22:18.186Z,21.90
2023-02-11T22:24:48.291Z,21.45
2023-02-11T22:27:20.128Z,20.85
2023-02-11T22:29:49.748Z,21.90
2023-02-11T22:32:19.944Z,22.55
2023-02-11T22:34:53.441Z,23.13
2023-02-11T22:37:23.072Z,22.98
2023-02-11T22:39:52.945Z,26.50
2023-02-11T22:42:22.361Z,24.95
2023-02-11T22:44:51.773Z,25.17
2023-02-11T22:47:21.172Z,23.45
2023-02-11T22:49:53.174Z,22.35
2023-02-11T22:52:23.746Z,23.50
2023-02-11T22:54:55.167Z,24.13
2023-02-11T22:57:24.608Z,24.02
2023-02-11T22:59:54.057Z,28.80
2023-02-11T23:02:23.485Z,24.50
2023-02-11T23:04:56.176Z,23.40
2023-02-11T23:07:25.596Z,25.33
2023-02-11T23:09:55.082Z,25.40
2023-02-11T23:12:24.507Z,31.13
2023-02-11T23:14:53.948Z,23.40
2023-02-11T23:17:24.570Z,22.63
2023-02-11T23:19:56.684Z,21.63
2023-02-11T23:22:26.175Z,22.85
2023-02-11T23:24:55.592Z,21.80
2023-02-11T23:27:25.032Z,22.08
2023-02-11T23:29:57.713Z,20.50
2023-02-11T23:32:27.136Z,20.52
2023-02-11T23:34:59.161Z,21.30
2023-02-11T23:37:28.578Z,20.10
2023-02-11T23:39:58.082Z,21.35
2023-02-11T23:42:29.194Z,19.67
2023-02-11T23:47:27.947Z,22.60
2023-02-11T23:49:59.984Z,21.35
2023-02-11T23:52:29.426Z,21.23
2023-02-11T23:54:58.845Z,22.40
2023-02-11T23:57:28.256Z,23.67
2023-02-11T23:59:57.696Z,20.98
